Time;durP1;ratioP1;P1;durP2;ratioP2;P2;SDS_P1;SDS_P2;PMS_P1;PMS_P2;Temp;Humidity;BMP_temperature;BMP_pressure;BME280_temperature;BME280_humidity;BME280_pressure;Samples;Min_cycle;Max_cycle;Signal;HPM_P1;HPM_P2
2022/02/25 00:00:52;;;;;;;1.17;0.35;;;5.10;99.90;;;;;;4974279;28;20051;-78
2022/02/25 04:53:58;;;;;;;5.22;0.98;;;3.10;97.40;;;;;;5434883;23;20417;-79
2022/02/25 04:56:25;;;;;;;3.85;1.30;;;3.10;97.50;;;;;;4971064;28;20087;-77
2022/02/25 04:58:53;;;;;;;3.05;0.77;;;3.10;97.60;;;;;;4969822;28;20473;-77
2022/02/25 05:01:20;;;;;;;4.85;0.80;;;3.10;97.60;;;;;;4983486;28;20130;-76
2022/02/25 05:03:47;;;;;;;5.47;1.40;;;3.10;97.60;;;;;;4983306;28;20476;-76
2022/02/25 05:06:14;;;;;;;7.97;1.20;;;3.20;97.60;;;;;;4987624;28;20083;-78
2022/02/25 05:08:41;;;;;;;4.88;1.00;;;3.20;97.60;;;;;;4988148;28;20112;-79
2022/02/25 05:11:10;;;;;;;5.90;1.27;;;3.10;97.60;;;;;;4989477;28;20130;-79
2022/02/25 05:13:37;;;;;;;6.38;1.02;;;3.10;97.70;;;;;;4986512;28;20043;-76
2022/02/25 05:21:33;;;;;;;;;;;3.10;97.90;;;;;;4981315;28;20049;-76
2022/02/25 05:24:00;;;;;;;3.63;0.80;;;3.00;98.10;;;;;;4979582;28;19930;-77
2022/02/25 05:26:30;;;;;;;3.10;0.73;;;3.00;98.30;;;;;;4982964;28;20137;-75
2022/02/25 05:28:57;;;;;;;6.03;1.30;;;3.00;98.40;;;;;;4979396;28;20054;-74
2022/02/25 05:31:24;;;;;;;5.20;1.20;;;2.90;98.60;;;;;;4962768;29;20134;-73
2022/02/25 05:33:58;;;;;;;4.20;1.08;;;2.90;98.70;;;;;;4963822;29;20050;-74
2022/02/25 05:36:33;;;;;;;3.53;0.90;;;2.90;98.80;;;;;;4961608;28;20059;-75
2022/02/25 05:39:02;;;;;;;9.02;1.20;;;2.80;98.90;;;;;;4962850;28;20047;-75
2022/02/25 05:41:32;;;;;;;5.82;0.98;;;2.80;99.10;;;;;;4962752;29;20043;-74
2022/02/25 05:44:04;;;;;;;5.32;1.63;;;2.80;99.20;;;;;;4963145;28;20516;-75
2022/02/25 05:46:32;;;;;;;5.15;1.50;;;2.80;99.30;;;;;;4961939;29;20075;-76
2022/02/25 05:48:59;;;;;;;5.07;1.55;;;2.80;99.40;;;;;;4962846;28;20130;-75
2022/02/25 05:51:26;;;;;;;6.70;1.00;;;2.70;99.50;;;;;;4966125;29;20110;-75
2022/02/25 05:53:53;;;;;;;9.45;1.65;;;2.70;99.50;;;;;;4964933;29;20087;-75
2022/02/25 05:56:24;;;;;;;4.72;1.40;;;2.70;99.60;;;;;;4963849;29;20058;-74
2022/02/25 05:58:55;;;;;;;5.20;1.00;;;2.70;99.70;;;;;;4945816;29;20053;-74
2022/02/25 06:01:22;;;;;;;8.75;1.77;;;2.70;99.70;;;;;;4972780;28;20452;-74
2022/02/25 06:03:50;;;;;;;7.55;1.20;;;2.70;99.80;;;;;;4981926;28;20057;-75
2022/02/25 06:06:18;;;;;;;7.95;1.38;;;2.70;99.90;;;;;;4981761;28;20081;-74
2022/02/25 06:08:45;;;;;;;4.78;1.30;;;2.70;99.90;;;;;;4984375;28;20448;-74
2022/02/25 06:11:13;;;;;;;5.63;1.13;;;2.70;99.90;;;;;;4982155;28;20074;-75
2022/02/25 06:13:41;;;;;;;6.60;1.45;;;2.70;99.90;;;;;;4980326;28;20046;-76
2022/02/25 06:16:13;;;;;;;6.03;1.35;;;2.70;99.90;;;;;;4982111;28;20078;-75
2022/02/25 06:18:44;;;;;;;6.05;1.38;;;2.70;99.90;;;;;;4983709;28;20086;-75
2022/02/25 06:21:11;;;;;;;6.20;1.30;;;2.70;99.90;;;;;;4983524;28;20078;-75
2022/02/25 06:23:39;;;;;;;5.25;1.33;;;2.70;99.90;;;;;;4982984;28;20046;-77
2022/02/25 06:26:09;;;;;;;5.60;1.60;;;2.70;99.90;;;;;;4983218;28;20074;-75
2022/02/25 06:28:41;;;;;;;6.90;1.63;;;2.70;99.90;;;;;;4982508;28;20094;-77
2022/02/25 06:31:10;;;;;;;4.38;1.42;;;2.80;99.90;;;;;;4985622;28;20047;-78
2022/02/25 06:33:37;;;;;;;4.60;1.27;;;2.80;99.90;;;;;;4983129;28;20457;-74
2022/02/25 06:36:10;;;;;;;7.38;1.70;;;2.80;99.90;;;;;;4982881;28;20129;-75
2022/02/25 06:38:38;;;;;;;6.85;1.67;;;2.90;99.90;;;;;;4985310;28;20082;-74
2022/02/25 06:41:05;;;;;;;6.07;1.30;;;2.90;99.90;;;;;;4983438;28;20134;-75
2022/02/25 06:43:35;;;;;;;5.95;1.60;;;2.90;99.90;;;;;;4983229;28;20047;-75
2022/02/25 06:46:02;;;;;;;6.88;1.92;;;2.90;99.90;;;;;;4983162;28;20051;-74
2022/02/25 06:48:31;;;;;;;7.32;1.63;;;2.90;99.90;;;;;;4964889;28;20047;-75
2022/02/25 06:51:03;;;;;;;8.05;1.85;;;2.90;99.90;;;;;;4985231;28;20125;-74
2022/02/25 06:53:33;;;;;;;6.50;1.50;;;3.00;99.90;;;;;;4985514;28;20050;-75
2022/02/25 06:56:02;;;;;;;7.63;1.60;;;3.00;99.90;;;;;;4985643;28;20046;-74
2022/02/25 06:58:30;;;;;;;6.15;1.45;;;3.00;99.90;;;;;;4987046;28;20095;-76
2022/02/25 07:00:59;;;;;;;7.07;1.45;;;3.00;99.90;;;;;;4988701;28;20118;-76
2022/02/25 07:03:37;;;;;;;5.82;1.77;;;2.90;99.90;;;;;;4986252;28;20090;-76
2022/02/25 07:06:05;;;;;;;8.13;1.58;;;3.00;99.90;;;;;;4981651;28;20452;-75
2022/02/25 07:08:33;;;;;;;8.15;1.30;;;2.90;99.90;;;;;;4985044;28;20137;-76
2022/02/25 07:11:02;;;;;;;9.10;2.15;;;3.00;99.90;;;;;;4986359;28;20085;-76
2022/02/25 07:13:29;;;;;;;6.35;2.03;;;3.00;99.90;;;;;;4985256;28;20102;-75
2022/02/25 07:15:58;;;;;;;7.50;1.70;;;3.00;99.90;;;;;;4984033;28;20134;-74
2022/02/25 07:18:25;;;;;;;8.68;1.88;;;3.10;99.90;;;;;;4986334;28;20086;-78
2022/02/25 07:20:54;;;;;;;6.78;1.70;;;3.10;99.90;;;;;;4986773;28;20129;-75
2022/02/25 07:23:21;;;;;;;6.68;1.40;;;3.10;99.90;;;;;;4981631;28;20105;-74
2022/02/25 07:25:48;;;;;;;6.47;1.60;;;3.20;99.90;;;;;;4982213;28;20074;-74
2022/02/25 07:28:30;;;;;;;6.13;1.77;;;3.20;99.90;;;;;;4981650;28;20061;-77
2022/02/25 07:30:58;;;;;;;9.52;1.38;;;3.20;99.90;;;;;;4980871;28;20050;-74
2022/02/25 07:33:25;;;;;;;5.03;1.95;;;3.20;99.90;;;;;;4982401;28;20050;-74
2022/02/25 07:35:56;;;;;;;7.15;2.05;;;3.30;99.90;;;;;;4982710;28;20046;-75
2022/02/25 07:38:30;;;;;;;9.20;1.38;;;3.30;99.90;;;;;;4982929;28;20068;-75
2022/02/25 07:40:59;;;;;;;4.80;1.48;;;3.30;99.90;;;;;;4982070;28;20123;-75
2022/02/25 07:43:31;;;;;;;8.05;1.52;;;3.30;99.90;;;;;;4983074;28;20054;-76
2022/02/25 07:46:00;;;;;;;6.27;1.40;;;3.30;99.90;;;;;;4980622;28;20551;-75
2022/02/25 07:48:27;;;;;;;8.88;1.40;;;3.40;99.90;;;;;;4981676;28;20309;-75
2022/02/25 07:50:56;;;;;;;9.32;2.42;;;3.40;99.90;;;;;;4982833;28;20046;-75
2022/02/25 07:53:27;;;;;;;7.45;1.80;;;3.50;99.90;;;;;;4981166;28;20146;-74
2022/02/25 07:55:57;;;;;;;5.68;1.60;;;3.50;99.90;;;;;;4983865;28;20047;-75
2022/02/25 07:58:25;;;;;;;9.18;1.75;;;3.50;99.90;;;;;;4980980;28;20130;-76
2022/02/25 08:00:52;;;;;;;7.40;1.65;;;3.50;99.90;;;;;;4974332;28;20484;-75
2022/02/25 08:03:22;;;;;;;8.80;1.92;;;3.50;99.80;;;;;;4982158;28;20480;-75
2022/02/25 08:05:50;;;;;;;10.13;1.80;;;3.50;99.80;;;;;;4979841;28;20078;-75
2022/02/25 08:08:18;;;;;;;8.35;1.60;;;3.50;99.80;;;;;;4961526;29;20401;-74
2022/02/25 08:10:47;;;;;;;6.82;1.92;;;3.60;99.90;;;;;;4960392;29;20098;-75
2022/02/25 08:13:21;;;;;;;8.55;1.88;;;3.60;99.80;;;;;;4963121;28;20047;-75
2022/02/25 08:15:49;;;;;;;5.45;1.30;;;3.60;99.90;;;;;;4958254;29;20055;-75
2022/02/25 08:18:23;;;;;;;7.57;1.50;;;3.60;99.70;;;;;;4956156;28;20047;-74
2022/02/25 08:20:50;;;;;;;6.78;1.83;;;3.70;99.50;;;;;;4956450;29;20110;-75
2022/02/25 08:23:19;;;;;;;8.20;1.60;;;3.70;99.40;;;;;;4956503;29;20484;-75
2022/02/25 08:25:46;;;;;;;8.00;1.73;;;3.80;99.30;;;;;;4971845;28;20061;-75
2022/02/25 08:28:13;;;;;;;6.75;1.70;;;3.80;99.20;;;;;;4976898;28;20047;-74
2022/02/25 08:30:46;;;;;;;4.40;1.90;;;3.80;99.30;;;;;;4966542;28;20047;-75
2022/02/25 08:33:14;;;;;;;8.85;2.05;;;3.80;99.30;;;;;;4956756;29;20047;-74
2022/02/25 08:35:43;;;;;;;8.00;1.70;;;3.80;99.10;;;;;;4959732;29;20126;-76
2022/02/25 08:38:12;;;;;;;5.53;1.60;;;3.90;99.10;;;;;;4958024;29;20043;-75
2022/02/25 08:40:41;;;;;;;7.50;1.77;;;3.90;99.10;;;;;;4956826;28;20048;-76
2022/02/25 08:43:09;;;;;;;12.38;1.75;;;4.00;98.90;;;;;;4969322;28;20051;-75
2022/02/25 08:45:40;;;;;;;6.70;2.15;;;4.00;98.80;;;;;;4976909;28;20052;-75
2022/02/25 08:48:11;;;;;;;6.95;1.90;;;4.10;98.60;;;;;;4958969;28;20115;-74
2022/02/25 08:50:39;;;;;;;6.25;1.60;;;4.10;98.30;;;;;;4957462;28;20051;-75
2022/02/25 08:53:06;;;;;;;6.65;1.38;;;4.20;98.10;;;;;;4957577;28;20043;-77
2022/02/25 08:55:35;;;;;;;8.25;1.60;;;4.20;98.10;;;;;;4956923;28;20492;-74
2022/02/25 08:58:04;;;;;;;6.88;1.42;;;4.20;98.20;;;;;;4957554;28;20048;-74
2022/02/25 09:00:31;;;;;;;7.70;1.55;;;4.30;97.90;;;;;;4976124;28;20069;-75
2022/02/25 09:02:58;;;;;;;8.88;2.10;;;4.30;97.70;;;;;;4976526;28;20051;-74
2022/02/25 09:05:26;;;;;;;6.65;1.35;;;4.40;97.40;;;;;;4975333;28;20060;-75
2022/02/25 09:07:54;;;;;;;7.88;1.48;;;4.40;97.20;;;;;;4976060;28;20053;-76
2022/02/25 09:10:22;;;;;;;7.18;1.45;;;4.50;96.90;;;;;;4974223;28;20137;-75
2022/02/25 09:12:51;;;;;;;6.70;1.92;;;4.50;96.60;;;;;;4956753;29;20047;-75
2022/02/25 09:15:23;;;;;;;6.65;1.55;;;4.50;96.40;;;;;;4956896;28;20055;-74
2022/02/25 09:17:52;;;;;;;7.10;1.85;;;4.60;96.00;;;;;;4960488;28;20503;-76
2022/02/25 09:20:20;;;;;;;7.00;1.52;;;4.50;96.00;;;;;;4967528;28;20121;-78
2022/02/25 09:22:48;;;;;;;8.57;1.50;;;4.60;96.00;;;;;;4973579;28;20059;-77
2022/02/25 09:25:15;;;;;;;7.85;1.83;;;4.70;95.70;;;;;;4973608;28;20061;-74
2022/02/25 09:27:43;;;;;;;5.97;1.10;;;4.70;95.60;;;;;;4972419;28;20043;-74
2022/02/25 09:30:14;;;;;;;7.05;1.55;;;4.80;95.50;;;;;;4961815;28;20504;-74
2022/02/25 09:32:43;;;;;;;7.22;1.55;;;4.80;94.50;;;;;;4955827;28;20051;-77
2022/02/25 09:35:11;;;;;;;8.73;1.45;;;4.90;93.90;;;;;;4957245;28;20078;-74
2022/02/25 09:37:39;;;;;;;8.15;1.77;;;4.90;92.70;;;;;;4956119;29;20559;-75
2022/02/25 09:40:09;;;;;;;7.13;1.10;;;4.90;93.60;;;;;;4955339;28;20047;-74
2022/02/25 09:42:37;;;;;;;7.35;1.40;;;5.00;93.40;;;;;;4965531;28;20059;-75
2022/02/25 09:45:06;;;;;;;6.15;1.60;;;5.00;93.70;;;;;;4954147;29;20061;-75
2022/02/25 09:47:35;;;;;;;7.70;1.60;;;5.10;93.30;;;;;;4953166;29;20130;-74
2022/02/25 09:50:04;;;;;;;7.97;1.52;;;5.20;91.40;;;;;;4955314;28;20061;-77
2022/02/25 09:52:36;;;;;;;5.43;1.55;;;5.30;91.40;;;;;;4964022;28;20166;-75
2022/02/25 09:55:06;;;;;;;6.80;1.30;;;5.30;90.70;;;;;;4977344;28;20146;-75
2022/02/25 09:57:34;;;;;;;7.18;1.20;;;5.40;88.00;;;;;;4977226;28;20055;-74
2022/02/25 10:00:01;;;;;;;5.25;1.23;;;5.40;88.70;;;;;;4975819;28;20527;-75
2022/02/25 10:02:39;;;;;;;6.05;1.15;;;5.40;88.90;;;;;;4975897;28;20371;-77
2022/02/25 10:05:14;;;;;;;6.78;1.20;;;5.50;89.10;;;;;;4975334;28;20432;-77
2022/02/25 10:07:41;;;;;;;7.78;1.25;;;5.50;89.50;;;;;;4975108;28;20408;-75
2022/02/25 10:10:11;;;;;;;10.65;2.10;;;5.70;88.40;;;;;;4974399;28;20055;-77
2022/02/25 10:12:39;;;;;;;11.35;3.92;;;5.70;87.90;;;;;;4974306;28;20055;-77
2022/02/25 10:15:08;;;;;;;7.40;1.17;;;5.80;85.80;;;;;;4975287;28;20046;-74
2022/02/25 10:17:37;;;;;;;8.88;1.20;;;5.90;81.80;;;;;;4974573;28;20053;-76
2022/02/25 10:20:08;;;;;;;7.63;1.27;;;5.90;79.80;;;;;;4973792;28;20109;-75
2022/02/25 10:22:39;;;;;;;5.50;1.10;;;5.90;79.80;;;;;;4973539;28;20053;-76
2022/02/25 10:25:08;;;;;;;10.65;1.80;;;5.90;80.40;;;;;;4975276;28;20054;-75
2022/02/25 10:27:39;;;;;;;10.85;1.17;;;5.90;79.30;;;;;;4977492;28;20057;-74
2022/02/25 10:30:11;;;;;;;8.38;1.20;;;5.90;81.20;;;;;;4976826;28;20050;-76
2022/02/25 10:32:41;;;;;;;5.25;1.15;;;6.00;78.70;;;;;;4973894;28;20137;-74
2022/02/25 10:35:25;;;;;;;8.05;1.40;;;6.00;79.20;;;;;;4961527;28;20150;-75
2022/02/25 10:38:14;;;;;;;3.95;0.90;;;6.10;80.50;;;;;;4970352;28;20126;-79
2022/02/25 10:40:44;;;;;;;5.75;1.10;;;6.00;81.70;;;;;;4973689;28;20526;-78
2022/02/25 10:43:25;;;;;;;8.68;1.30;;;6.10;80.00;;;;;;4964930;28;20050;-76
2022/02/25 10:45:55;;;;;;;6.25;1.27;;;6.10;81.20;;;;;;4960479;28;20504;-77
2022/02/25 10:48:29;;;;;;;8.60;1.88;;;6.20;80.10;;;;;;4972437;28;20051;-78
2022/02/25 10:50:59;;;;;;;4.63;1.17;;;6.20;81.40;;;;;;4956830;28;20061;-79
2022/02/25 10:53:32;;;;;;;7.95;1.17;;;6.30;79.70;;;;;;4972010;28;20485;-80
2022/02/25 10:56:07;;;;;;;5.00;1.05;;;6.40;79.90;;;;;;4980704;28;20051;-92
2022/02/25 10:58:43;;;;;;;5.95;1.13;;;6.40;80.20;;;;;;4973801;28;20122;-79
2022/02/25 11:01:11;;;;;;;7.72;1.20;;;6.40;77.10;;;;;;4959414;28;20055;-79
2022/02/25 11:03:38;;;;;;;5.88;1.40;;;6.40;78.10;;;;;;4966170;28;20059;-84
2022/02/25 11:06:08;;;;;;;5.35;1.10;;;6.40;78.70;;;;;;4958288;28;20062;-80
2022/02/25 11:08:39;;;;;;;5.72;1.15;;;6.40;77.70;;;;;;4959662;28;20050;-79
2022/02/25 11:11:07;;;;;;;8.68;1.67;;;6.40;79.40;;;;;;4966843;28;20062;-79
2022/02/25 11:13:34;;;;;;;6.22;1.10;;;6.40;79.50;;;;;;4960231;28;20055;-80
2022/02/25 11:16:02;;;;;;;4.28;1.42;;;6.30;80.70;;;;;;4962397;28;20130;-79
2022/02/25 11:18:31;;;;;;;6.50;1.30;;;6.30;80.50;;;;;;4967803;28;20145;-81
2022/02/25 11:20:59;;;;;;;5.38;1.10;;;6.30;80.40;;;;;;4957557;28;20101;-80
2022/02/25 11:23:28;;;;;;;5.63;1.10;;;6.30;79.80;;;;;;4965342;28;20066;-80
2022/02/25 11:25:57;;;;;;;6.32;1.00;;;6.20;79.50;;;;;;4963091;28;20095;-79
2022/02/25 11:28:25;;;;;;;5.45;1.10;;;6.30;78.00;;;;;;4971251;28;20105;-79
2022/02/25 11:30:59;;;;;;;6.93;1.02;;;6.20;76.70;;;;;;4975764;28;20050;-78
2022/02/25 11:33:27;;;;;;;5.18;1.10;;;6.30;76.30;;;;;;4976476;28;20050;-80
2022/02/25 11:35:57;;;;;;;5.72;1.33;;;6.30;76.00;;;;;;4975836;28;20082;-80
2022/02/25 11:38:30;;;;;;;8.45;1.30;;;6.40;75.20;;;;;;4963205;28;20299;-80
2022/02/25 11:41:03;;;;;;;5.93;1.50;;;6.40;75.70;;;;;;4956364;28;20051;-79
2022/02/25 11:43:41;;;;;;;7.85;1.23;;;6.40;75.60;;;;;;4959493;29;20102;-78
2022/02/25 11:46:13;;;;;;;5.90;0.90;;;6.50;74.70;;;;;;4956185;28;20556;-79
2022/02/25 11:48:46;;;;;;;7.32;1.38;;;6.50;73.80;;;;;;4956220;29;20477;-79
2022/02/25 11:51:33;;;;;;;6.35;1.30;;;6.50;74.50;;;;;;4972660;28;20074;-79
2022/02/25 11:54:26;;;;;;;8.18;1.30;;;6.60;74.60;;;;;;4975109;28;20500;-79
2022/02/25 11:57:28;;;;;;;5.90;1.40;;;6.70;74.40;;;;;;4975392;28;20074;-79
2022/02/25 12:00:21;;;;;;;6.35;1.08;;;6.80;73.80;;;;;;4975226;28;20102;-77
2022/02/25 12:03:11;;;;;;;4.90;1.10;;;6.90;71.70;;;;;;4973667;28;20126;-80
2022/02/25 12:05:43;;;;;;;7.25;1.15;;;6.90;72.70;;;;;;4974991;28;20051;-79
2022/02/25 12:08:38;;;;;;;4.35;1.20;;;6.90;71.60;;;;;;4975183;28;20053;-79
2022/02/25 12:11:31;;;;;;;8.85;1.20;;;6.90;70.50;;;;;;4930295;28;20057;-79
2022/02/25 12:14:01;;;;;;;5.70;1.20;;;6.90;70.50;;;;;;4970448;28;20047;-78
2022/02/25 12:16:32;;;;;;;5.85;1.10;;;6.90;71.70;;;;;;4975323;28;20043;-82
2022/02/25 12:19:21;;;;;;;5.07;1.10;;;6.90;69.10;;;;;;4975026;28;20050;-80
2022/02/25 12:21:48;;;;;;;4.53;1.38;;;7.00;70.80;;;;;;4975164;28;20046;-80
2022/02/25 12:24:17;;;;;;;9.48;2.45;;;7.10;71.30;;;;;;4969690;28;20071;-77
2022/02/25 12:26:58;;;;;;;6.97;1.60;;;7.30;71.20;;;;;;4955834;29;20043;-78
2022/02/25 12:29:35;;;;;;;8.32;1.70;;;7.30;71.60;;;;;;4956281;29;20047;-80
2022/02/25 12:32:03;;;;;;;5.50;1.20;;;7.40;70.70;;;;;;4959500;29;20048;-80
2022/02/25 12:34:30;;;;;;;7.28;1.40;;;7.40;70.30;;;;;;4961958;29;20485;-77
2022/02/25 12:37:00;;;;;;;10.35;1.42;;;7.40;70.40;;;;;;4967863;28;20480;-79
2022/02/25 12:39:35;;;;;;;4.55;0.98;;;7.40;69.90;;;;;;4982052;28;20090;-77
2022/02/25 12:42:10;;;;;;;5.55;1.48;;;7.30;68.60;;;;;;4983232;28;20051;-78
2022/02/25 12:44:44;;;;;;;4.85;1.20;;;7.20;69.50;;;;;;4980960;28;20050;-80
2022/02/25 12:47:14;;;;;;;4.53;1.20;;;7.10;69.40;;;;;;4980504;28;20412;-80
2022/02/25 12:49:43;;;;;;;7.03;1.30;;;7.00;69.40;;;;;;4979085;28;20304;-80
2022/02/25 12:52:13;;;;;;;6.18;1.60;;;6.90;70.60;;;;;;4981101;28;20054;-82
2022/02/25 12:54:40;;;;;;;5.82;1.20;;;6.90;71.40;;;;;;4981362;28;20055;-79
2022/02/25 12:57:11;;;;;;;7.53;1.13;;;6.90;70.60;;;;;;4981188;28;20444;-78
2022/02/25 12:59:43;;;;;;;8.75;1.40;;;6.80;70.60;;;;;;4976620;28;20066;-81
2022/02/25 13:02:13;;;;;;;5.97;1.48;;;6.80;71.30;;;;;;4972847;28;20043;-78
2022/02/25 13:04:44;;;;;;;5.80;1.55;;;6.70;71.50;;;;;;4974542;28;20407;-79
2022/02/25 13:07:11;;;;;;;8.45;1.30;;;6.70;71.60;;;;;;4974438;28;20051;-79
2022/02/25 13:09:39;;;;;;;6.00;1.35;;;6.60;72.20;;;;;;4974479;28;20061;-81
2022/02/25 13:12:10;;;;;;;5.90;1.30;;;6.60;72.10;;;;;;4974503;28;20047;-78
2022/02/25 13:14:43;;;;;;;5.35;1.27;;;6.70;72.30;;;;;;4974172;28;20053;-79
2022/02/25 13:17:13;;;;;;;5.65;1.23;;;6.70;71.90;;;;;;4975835;28;20134;-76
2022/02/25 13:19:43;;;;;;;5.50;1.13;;;6.70;71.90;;;;;;4977572;28;20065;-77
2022/02/25 13:22:15;;;;;;;6.13;1.38;;;6.70;72.20;;;;;;4977379;28;20056;-80
2022/02/25 13:25:00;;;;;;;6.80;1.75;;;6.70;72.00;;;;;;4955529;28;20059;-82
2022/02/25 13:27:44;;;;;;;5.18;1.08;;;6.70;70.90;;;;;;4963529;28;20065;-81
2022/02/25 13:30:18;;;;;;;9.18;1.40;;;6.70;71.00;;;;;;4978370;28;20057;-81
2022/02/25 13:32:55;;;;;;;4.90;1.05;;;6.70;71.10;;;;;;4977923;28;20050;-81
2022/02/25 13:35:25;;;;;;;6.72;1.23;;;6.70;71.80;;;;;;4974418;28;20126;-78
2022/02/25 13:37:58;;;;;;;6.88;1.30;;;6.70;72.50;;;;;;4959538;28;20051;-80
2022/02/25 13:40:29;;;;;;;4.65;1.38;;;6.70;72.60;;;;;;4956465;28;20051;-80
2022/02/25 13:42:57;;;;;;;4.30;1.10;;;6.70;72.70;;;;;;4960594;28;20061;-79
2022/02/25 13:45:34;;;;;;;6.97;1.50;;;6.70;71.70;;;;;;4956287;29;20055;-80
2022/02/25 13:53:55;;;;;;;6.43;1.55;;;6.80;72.80;;;;;;4942942;29;20070;-80
2022/02/25 13:56:29;;;;;;;4.78;1.23;;;6.80;71.80;;;;;;4956715;29;20058;-81
2022/02/25 13:59:01;;;;;;;6.35;1.67;;;6.70;72.70;;;;;;4968914;28;20065;-80
2022/02/25 14:01:30;;;;;;;5.28;1.55;;;6.80;73.40;;;;;;4957914;28;20065;-81
2022/02/25 14:03:57;;;;;;;9.65;1.65;;;6.80;73.80;;;;;;4975394;28;20061;-80
2022/02/25 14:06:27;;;;;;;5.65;1.33;;;6.80;74.10;;;;;;4962281;28;20051;-83
2022/02/25 14:08:56;;;;;;;5.45;1.20;;;6.70;73.60;;;;;;4957828;28;20126;-81
2022/02/25 14:11:41;;;;;;;6.03;1.48;;;6.70;73.10;;;;;;4967071;28;20552;-80
2022/02/25 14:14:09;;;;;;;6.30;1.35;;;6.70;73.40;;;;;;4963398;28;20399;-80
2022/02/25 14:16:44;;;;;;;6.68;1.45;;;6.70;74.10;;;;;;4967802;28;20053;-77
2022/02/25 14:19:16;;;;;;;6.50;2.08;;;6.70;74.60;;;;;;4956490;28;20055;-76
2022/02/25 14:21:44;;;;;;;7.72;1.70;;;6.70;74.40;;;;;;4955535;28;20488;-78
2022/02/25 14:24:23;;;;;;;6.57;1.30;;;6.70;74.50;;;;;;4955225;28;20051;-74
2022/02/25 14:27:10;;;;;;;6.50;1.42;;;6.70;75.40;;;;;;4955333;29;20142;-76
2022/02/25 14:29:39;;;;;;;7.32;1.40;;;6.60;77.30;;;;;;4958666;28;20057;-77
2022/02/25 14:32:14;;;;;;;5.20;1.38;;;6.60;84.30;;;;;;4974697;28;20447;-75
2022/02/25 14:34:44;;;;;;;;;;;6.30;89.70;;;;;;4974915;28;20062;-77
2022/02/25 14:37:27;;;;;;;7.60;1.50;;;6.20;91.70;;;;;;4972470;28;19926;-76
2022/02/25 14:39:56;;;;;;;5.53;1.40;;;6.10;92.90;;;;;;4957440;28;20500;-78
2022/02/25 14:42:23;;;;;;;6.80;1.35;;;6.00;93.50;;;;;;4960457;28;20053;-78
2022/02/25 14:44:50;;;;;;;3.88;1.23;;;5.90;93.90;;;;;;4960648;28;20404;-76
2022/02/25 14:47:19;;;;;;;4.55;1.10;;;5.80;94.00;;;;;;4960017;28;20130;-75
2022/02/25 14:49:46;;;;;;;4.60;1.20;;;5.80;94.00;;;;;;4974131;28;20058;-77
2022/02/25 14:52:14;;;;;;;7.45;1.40;;;5.80;94.60;;;;;;4973899;28;20141;-76
2022/02/25 14:54:41;;;;;;;5.75;1.33;;;5.80;94.20;;;;;;4958343;28;20051;-74
2022/02/25 14:57:10;;;;;;;4.55;1.20;;;5.70;94.20;;;;;;4957672;28;20051;-75
2022/02/25 14:59:41;;;;;;;8.50;1.38;;;5.80;94.50;;;;;;4959806;28;20047;-78
2022/02/25 15:02:09;;;;;;;4.75;1.23;;;5.70;94.50;;;;;;4955575;28;20051;-77
2022/02/25 15:04:41;;;;;;;6.40;1.40;;;5.80;95.70;;;;;;4967515;28;20138;-76
2022/02/25 15:07:08;;;;;;;8.75;1.58;;;5.70;97.40;;;;;;4971039;28;20378;-75
2022/02/25 15:09:35;;;;;;;6.00;1.45;;;5.60;99.00;;;;;;4955590;29;20073;-75
2022/02/25 15:12:04;;;;;;;9.82;2.13;;;5.50;99.90;;;;;;4957791;28;20054;-74
2022/02/25 15:14:32;;;;;;;7.05;1.40;;;5.30;99.90;;;;;;4975989;28;20054;-79
2022/02/25 15:16:59;;;;;;;6.90;1.30;;;5.10;99.90;;;;;;4977304;28;20202;-78
2022/02/25 15:19:27;;;;;;;7.20;1.45;;;5.00;99.90;;;;;;4975788;28;20154;-77
2022/02/25 15:21:58;;;;;;;6.75;1.60;;;5.00;99.90;;;;;;4957994;28;20047;-75
2022/02/25 15:24:27;;;;;;;6.35;1.50;;;5.50;99.90;;;;;;4954879;29;20047;-76
2022/02/25 15:26:57;;;;;;;4.75;1.20;;;7.60;99.90;;;;;;4954333;28;20497;-78
2022/02/25 15:29:25;;;;;;;3.75;1.15;;;10.00;96.00;;;;;;4959442;28;20076;-78
2022/02/25 15:31:52;;;;;;;4.13;1.10;;;12.20;90.30;;;;;;4969218;28;20059;-79
2022/02/25 15:34:19;;;;;;;8.30;1.30;;;13.90;77.20;;;;;;4972147;28;20050;-76
2022/02/25 15:36:46;;;;;;;4.57;1.40;;;15.40;67.60;;;;;;4971897;28;20638;-79
2022/02/25 15:39:15;;;;;;;3.65;0.90;;;16.60;59.60;;;;;;4971588;28;20055;-81
2022/02/25 15:41:42;;;;;;;5.30;1.63;;;17.20;57.20;;;;;;4972444;28;20138;-80
2022/02/25 15:44:10;;;;;;;5.38;1.73;;;17.90;55.40;;;;;;4972428;28;20134;-78
2022/02/25 15:46:37;;;;;;;3.40;1.20;;;18.80;52.40;;;;;;4972117;28;20125;-80
2022/02/25 15:49:04;;;;;;;4.72;1.27;;;18.90;50.00;;;;;;4965892;28;20068;-76
2022/02/25 15:51:31;;;;;;;4.10;1.20;;;17.90;50.00;;;;;;4969903;28;20054;-76
2022/02/25 15:53:58;;;;;;;4.45;1.20;;;16.60;51.20;;;;;;4966341;28;20058;-77
2022/02/25 15:56:27;;;;;;;6.00;1.42;;;15.10;53.80;;;;;;4965532;28;20057;-77
2022/02/25 15:58:54;;;;;;;4.85;1.38;;;14.00;57.00;;;;;;4972712;28;20053;-77
2022/02/25 16:01:21;;;;;;;3.45;1.23;;;13.60;59.50;;;;;;4972909;28;20141;-78
2022/02/25 16:03:48;;;;;;;6.00;1.38;;;13.00;60.10;;;;;;4968162;28;20129;-77
2022/02/25 16:06:15;;;;;;;4.90;1.30;;;12.40;62.30;;;;;;4970188;28;20046;-79
2022/02/25 16:08:44;;;;;;;6.13;1.50;;;11.80;64.30;;;;;;4965929;28;20055;-75
2022/02/25 16:11:12;;;;;;;6.45;1.40;;;11.40;66.30;;;;;;4968973;28;20054;-77
2022/02/25 16:13:41;;;;;;;7.50;1.48;;;10.70;67.70;;;;;;4957458;28;20059;-78
2022/02/25 16:16:09;;;;;;;6.60;1.73;;;10.10;70.50;;;;;;4952746;28;20061;-79
2022/02/25 16:18:36;;;;;;;7.05;1.30;;;9.50;74.50;;;;;;4972346;28;20488;-78
2022/02/25 16:21:03;;;;;;;6.75;1.70;;;9.10;79.60;;;;;;4965340;28;20046;-78
2022/02/25 16:23:31;;;;;;;6.85;1.60;;;8.70;84.50;;;;;;4962694;28;20046;-81
2022/02/25 16:25:58;;;;;;;6.47;1.52;;;8.40;88.60;;;;;;4972527;28;20086;-81
2022/02/25 16:28:25;;;;;;;6.55;1.42;;;8.30;90.60;;;;;;4970427;28;20552;-80
2022/02/25 16:30:53;;;;;;;6.63;1.52;;;7.90;91.60;;;;;;4959838;28;20051;-79
2022/02/25 16:33:20;;;;;;;5.75;1.70;;;7.80;92.10;;;;;;4957342;28;20539;-80
2022/02/25 16:35:47;;;;;;;8.13;1.83;;;7.60;92.70;;;;;;4961494;28;20047;-79
2022/02/25 16:38:15;;;;;;;8.35;1.98;;;7.40;93.00;;;;;;4952648;28;20053;-81
2022/02/25 16:40:42;;;;;;;7.75;1.60;;;7.10;93.90;;;;;;4971546;28;20134;-83
2022/02/25 16:43:09;;;;;;;5.10;1.80;;;6.80;94.80;;;;;;4968692;28;20385;-80
2022/02/25 16:45:42;;;;;;;7.90;1.70;;;6.60;95.50;;;;;;4965424;28;20065;-80
2022/02/25 16:48:11;;;;;;;8.73;1.83;;;6.40;96.10;;;;;;4970927;28;20051;-80
2022/02/25 16:50:38;;;;;;;5.50;1.60;;;6.30;96.60;;;;;;4972408;28;20050;-81
2022/02/25 16:53:05;;;;;;;5.05;1.48;;;6.20;97.10;;;;;;4969901;28;20057;-80
2022/02/25 16:55:32;;;;;;;7.20;1.60;;;6.00;97.80;;;;;;4965087;28;20087;-79
2022/02/25 16:58:00;;;;;;;6.32;1.88;;;5.90;97.90;;;;;;4969732;28;20492;-79
2022/02/25 17:00:27;;;;;;;5.53;1.63;;;5.90;98.40;;;;;;4969842;28;20051;-79
2022/02/25 17:02:54;;;;;;;9.05;2.20;;;5.80;98.60;;;;;;4972044;28;20496;-78
2022/02/25 17:05:22;;;;;;;6.90;1.90;;;5.70;98.90;;;;;;4959717;28;20150;-81
2022/02/25 17:07:49;;;;;;;8.15;2.10;;;5.60;99.20;;;;;;4976287;28;20133;-79
2022/02/25 17:10:17;;;;;;;12.68;2.85;;;5.50;99.30;;;;;;4978208;28;20415;-82
2022/02/25 17:12:44;;;;;;;7.32;2.35;;;5.50;99.60;;;;;;4975342;28;20680;-79
2022/02/25 17:15:12;;;;;;;7.75;1.90;;;5.40;99.80;;;;;;4981456;28;20065;-82
2022/02/25 17:17:39;;;;;;;9.68;2.35;;;5.40;99.90;;;;;;4974274;28;20055;-77
2022/02/25 17:20:08;;;;;;;7.35;2.20;;;5.30;99.90;;;;;;4972369;28;20081;-80
2022/02/25 17:22:36;;;;;;;7.40;2.20;;;5.30;99.90;;;;;;4965841;28;20497;-86
2022/02/25 17:25:05;;;;;;;8.55;2.15;;;5.20;99.90;;;;;;4979427;28;20500;-82
2022/02/25 17:27:32;;;;;;;5.97;1.65;;;5.20;99.90;;;;;;4979144;28;20057;-80
2022/02/25 17:29:59;;;;;;;6.30;1.75;;;5.10;99.90;;;;;;4977886;28;20492;-85
2022/02/25 17:32:26;;;;;;;7.35;1.55;;;5.10;99.90;;;;;;4978359;28;20055;-80
2022/02/25 17:34:54;;;;;;;9.23;1.98;;;3.80;99.90;;;;;;4960299;28;20145;-83
2022/02/25 17:37:22;;;;;;;8.98;1.80;;;4.90;99.90;;;;;;4967447;28;20142;-81
2022/02/25 17:39:51;;;;;;;9.00;1.83;;;5.00;99.90;;;;;;4971142;28;20043;-82
2022/02/25 17:42:18;;;;;;;7.03;1.92;;;4.90;99.90;;;;;;4958806;28;20130;-81
2022/02/25 17:44:45;;;;;;;7.15;1.90;;;4.80;99.90;;;;;;4958568;28;20561;-80
2022/02/25 17:47:12;;;;;;;7.70;2.03;;;4.80;99.90;;;;;;4958830;28;20448;-78
2022/02/25 17:49:40;;;;;;;6.00;1.70;;;4.70;99.90;;;;;;4971305;28;20062;-81
2022/02/25 17:52:08;;;;;;;7.55;1.75;;;4.70;99.90;;;;;;4977968;28;20046;-76
2022/02/25 17:54:35;;;;;;;8.57;1.67;;;4.60;99.90;;;;;;4973071;28;20489;-83
2022/02/25 17:57:04;;;;;;;7.25;1.60;;;4.70;99.90;;;;;;4969128;28;20138;-83
2022/02/25 17:59:31;;;;;;;5.45;1.80;;;4.60;99.90;;;;;;4979173;28;20057;-86
2022/02/25 18:01:58;;;;;;;5.80;1.80;;;4.60;99.90;;;;;;4976918;28;20049;-80
2022/02/25 18:04:25;;;;;;;4.82;1.83;;;4.50;99.90;;;;;;4966754;28;20055;-79
2022/02/25 18:06:53;;;;;;;8.40;2.15;;;4.50;99.90;;;;;;4974069;28;20052;-81
2022/02/25 18:09:20;;;;;;;8.00;2.05;;;4.50;99.90;;;;;;4979569;28;20050;-82
2022/02/25 18:11:47;;;;;;;8.07;1.88;;;4.50;99.90;;;;;;4961875;28;20797;-78
2022/02/25 18:14:15;;;;;;;6.40;1.85;;;4.50;99.90;;;;;;4957043;28;20090;-87